createdAt,value
2023-03-30T00:01:35.656Z,33.66
2023-03-30T00:04:07.158Z,34.11
2023-03-30T00:06:39.728Z,34.22
2023-03-30T00:09:10.346Z,33.68
2023-03-30T00:11:43.621Z,33.39
2023-03-30T00:14:14.125Z,33.75
2023-03-30T00:16:45.189Z,33.71
2023-03-30T00:19:17.299Z,33.94
2023-03-30T00:21:47.837Z,33.90
2023-03-30T00:24:18.296Z,33.59
2023-03-30T00:26:50.294Z,33.76
2023-03-30T00:29:20.986Z,33.30
2023-03-30T00:31:51.795Z,33.45
2023-03-30T00:34:22.601Z,33.23
2023-03-30T00:36:53.848Z,33.70
2023-03-30T00:39:27.079Z,33.82
2023-03-30T00:41:59.158Z,33.70
2023-03-30T00:45:12.105Z,33.79
2023-03-30T00:47:47.713Z,33.56
2023-03-30T00:50:22.382Z,33.79
2023-03-30T00:52:57.155Z,33.60
2023-03-30T00:55:32.467Z,33.72
2023-03-30T00:58:05.405Z,34.00
2023-03-30T01:00:38.899Z,33.59
2023-03-30T01:03:17.100Z,33.84
2023-03-30T01:05:49.283Z,33.81
2023-03-30T01:08:20.666Z,34.05
2023-03-30T01:10:51.316Z,33.61
2023-03-30T01:13:24.347Z,33.57
2023-03-30T01:16:11.734Z,33.65
2023-03-30T01:18:57.020Z,33.50
2023-03-30T01:22:13.333Z,34.05
2023-03-30T01:25:38.852Z,33.69
2023-03-30T01:28:42.281Z,33.59
2023-03-30T01:31:49.656Z,33.63
2023-03-30T01:34:52.170Z,33.83
2023-03-30T01:38:11.028Z,33.82
2023-03-30T01:40:51.733Z,33.44
2023-03-30T01:43:32.167Z,33.59
2023-03-30T01:46:10.294Z,33.80
2023-03-30T01:48:50.394Z,33.91
2023-03-30T01:51:29.466Z,33.94
2023-03-30T01:54:10.074Z,33.80
2023-03-30T01:56:48.690Z,33.36
2023-03-30T01:59:29.336Z,33.74
2023-03-30T02:02:04.669Z,33.67
2023-03-30T02:04:42.333Z,33.97
2023-03-30T02:07:18.823Z,33.28
2023-03-30T02:09:53.414Z,33.25
2023-03-30T02:12:29.792Z,33.87
2023-03-30T02:15:05.306Z,33.36
2023-03-30T02:17:38.505Z,33.40
2023-03-30T02:20:12.902Z,33.58
2023-03-30T02:22:43.441Z,33.54
2023-03-30T02:25:14.797Z,33.23
2023-03-30T02:27:47.339Z,33.46
2023-03-30T02:30:18.841Z,33.28
2023-03-30T02:32:54.577Z,33.66
2023-03-30T02:35:58.254Z,33.05
2023-03-30T02:39:05.694Z,33.52
2023-03-30T02:42:38.218Z,33.43
2023-03-30T02:45:29.675Z,33.68
2023-03-30T02:48:19.142Z,33.53
2023-03-30T02:50:57.801Z,33.84
2023-03-30T02:53:37.492Z,33.34
2023-03-30T02:56:19.783Z,33.65
2023-03-30T02:58:58.906Z,33.16
2023-03-30T03:01:39.465Z,33.77
2023-03-30T03:04:15.883Z,33.19
2023-03-30T03:06:46.922Z,33.45
2023-03-30T03:09:17.527Z,33.73
2023-03-30T03:11:48.072Z,33.25
2023-03-30T03:14:17.932Z,33.31
2023-03-30T03:16:52.448Z,33.69
2023-03-30T03:19:23.451Z,33.22
2023-03-30T03:21:53.717Z,33.30
2023-03-30T03:24:24.628Z,33.38
2023-03-30T03:26:55.113Z,33.66
2023-03-30T03:29:27.804Z,33.51
2023-03-30T03:31:59.897Z,33.56
2023-03-30T03:34:31.828Z,33.13
2023-03-30T03:37:02.931Z,33.25
2023-03-30T03:39:34.112Z,33.47
2023-03-30T03:42:04.647Z,33.37
2023-03-30T03:44:38.044Z,33.54
2023-03-30T03:47:15.999Z,33.52
2023-03-30T03:49:47.052Z,33.60
2023-03-30T03:52:17.647Z,33.33
2023-03-30T03:54:48.087Z,33.42
2023-03-30T03:57:18.681Z,33.26
2023-03-30T03:59:49.200Z,33.42
2023-03-30T04:02:23.923Z,33.47
2023-03-30T04:04:54.837Z,33.29
2023-03-30T04:07:25.833Z,33.48
2023-03-30T04:09:56.069Z,33.44
2023-03-30T04:12:26.776Z,33.66
2023-03-30T04:14:57.244Z,33.28
2023-03-30T04:17:29.831Z,33.52
2023-03-30T04:20:06.924Z,33.76
2023-03-30T04:22:42.289Z,33.67
2023-03-30T04:25:15.368Z,33.80
2023-03-30T04:27:45.864Z,33.69
2023-03-30T04:30:16.897Z,33.65
2023-03-30T04:32:55.096Z,33.76
2023-03-30T04:35:25.715Z,33.90
2023-03-30T04:37:55.799Z,33.98
2023-03-30T04:40:26.772Z,33.68
2023-03-30T04:43:02.724Z,33.44
2023-03-30T04:45:34.161Z,33.53
2023-03-30T04:48:06.677Z,33.39
2023-03-30T04:50:37.107Z,33.30
2023-03-30T04:53:07.865Z,33.59
2023-03-30T04:55:37.785Z,33.86
2023-03-30T04:58:08.374Z,33.95
2023-03-30T05:00:39.071Z,33.48
2023-03-30T05:03:11.577Z,33.67
2023-03-30T05:05:42.036Z,33.74
2023-03-30T05:08:12.537Z,33.80
2023-03-30T05:10:43.067Z,33.74
2023-03-30T05:13:12.908Z,33.95
2023-03-30T05:15:43.245Z,33.66
2023-03-30T05:18:15.937Z,33.88
2023-03-30T05:20:46.044Z,33.61
2023-03-30T05:23:16.534Z,33.65
2023-03-30T05:25:49.227Z,33.94
2023-03-30T05:28:19.727Z,33.83
2023-03-30T05:30:54.544Z,33.63
2023-03-30T05:33:27.511Z,33.48
2023-03-30T05:35:58.017Z,33.70
2023-03-30T05:38:28.575Z,33.70
2023-03-30T05:40:59.096Z,33.80
2023-03-30T05:43:30.168Z,34.13
2023-03-30T05:46:00.583Z,33.77
2023-03-30T05:48:33.512Z,33.98
2023-03-30T05:51:04.292Z,33.64
2023-03-30T05:53:34.985Z,33.88
2023-03-30T05:56:05.759Z,33.55
2023-03-30T05:58:36.292Z,34.12
2023-03-30T06:01:07.459Z,33.79
2023-03-30T06:03:40.391Z,33.80
2023-03-30T06:06:12.628Z,34.20
2023-03-30T06:08:43.737Z,33.69
2023-03-30T06:11:14.470Z,33.88
2023-03-30T06:13:44.759Z,33.75
2023-03-30T06:16:15.573Z,34.02
2023-03-30T06:18:47.544Z,33.80
2023-03-30T06:21:18.203Z,33.54
2023-03-30T06:23:49.534Z,33.42
2023-03-30T06:26:20.210Z,33.41
2023-03-30T06:28:50.587Z,33.43
2023-03-30T06:31:21.214Z,33.40
2023-03-30T06:33:53.256Z,33.26
2023-03-30T06:36:44.422Z,33.34
2023-03-30T06:39:14.631Z,33.34
2023-03-30T06:41:45.081Z,33.33
2023-03-30T06:44:15.920Z,33.49
2023-03-30T06:46:46.659Z,33.31
2023-03-30T06:49:18.249Z,33.50
2023-03-30T06:51:49.063Z,33.29
2023-03-30T06:54:20.823Z,33.34
2023-03-30T06:56:53.082Z,33.40
2023-03-30T06:59:24.085Z,33.63
2023-03-30T07:01:54.318Z,33.10
2023-03-30T07:04:26.918Z,33.11
2023-03-30T07:06:58.054Z,33.43
2023-03-30T07:09:28.987Z,33.44
2023-03-30T07:11:59.547Z,33.25
2023-03-30T07:14:30.062Z,33.20
2023-03-30T07:17:00.316Z,33.46
2023-03-30T07:19:32.489Z,33.71
2023-03-30T07:22:03.046Z,33.38
2023-03-30T07:24:34.146Z,33.23
2023-03-30T07:27:04.548Z,33.64
2023-03-30T07:29:34.568Z,33.60
2023-03-30T07:32:04.850Z,33.31
2023-03-30T07:34:37.155Z,33.75
2023-03-30T07:37:08.488Z,33.71
2023-03-30T07:39:39.105Z,33.68
2023-03-30T07:42:10.392Z,33.46
2023-03-30T07:44:40.453Z,33.52
2023-03-30T07:47:11.017Z,33.27
2023-03-30T07:49:43.016Z,33.71
2023-03-30T07:52:13.650Z,33.39
2023-03-30T07:54:44.608Z,33.23
2023-03-30T07:57:15.220Z,33.39
2023-03-30T07:59:47.086Z,33.47
2023-03-30T08:02:18.544Z,33.42
2023-03-30T08:04:50.906Z,33.42
2023-03-30T08:07:20.767Z,33.52
2023-03-30T08:09:51.933Z,33.40
2023-03-30T08:12:22.384Z,33.24
2023-03-30T08:14:52.785Z,33.26
2023-03-30T08:17:33.006Z,33.56
2023-03-30T08:20:11.113Z,33.09
2023-03-30T08:22:41.962Z,33.17
2023-03-30T08:25:12.428Z,33.23
2023-03-30T08:27:42.992Z,33.30
2023-03-30T08:30:16.862Z,33.13
2023-03-30T08:32:47.805Z,33.02
2023-03-30T08:35:22.192Z,33.16
2023-03-30T08:37:54.312Z,33.45
2023-03-30T08:40:25.659Z,33.11
2023-03-30T08:43:15.236Z,33.22
2023-03-30T08:45:46.878Z,33.60
2023-03-30T08:48:23.919Z,33.65
2023-03-30T08:51:03.795Z,33.39
2023-03-30T08:53:37.240Z,33.43
2023-03-30T08:56:23.117Z,33.40
2023-03-30T08:59:07.825Z,33.82
2023-03-30T09:01:49.795Z,33.80
2023-03-30T09:04:35.789Z,34.00
2023-03-30T09:07:19.766Z,33.94
2023-03-30T09:09:53.234Z,33.90
2023-03-30T09:12:35.742Z,34.38
2023-03-30T09:15:16.261Z,34.34
2023-03-30T09:17:53.044Z,34.12
2023-03-30T09:20:28.156Z,34.32
2023-03-30T09:23:05.206Z,34.54
2023-03-30T09:25:45.465Z,34.56
2023-03-30T09:28:23.193Z,34.40
2023-03-30T09:31:01.928Z,34.47
2023-03-30T09:33:41.272Z,34.58
2023-03-30T09:36:20.415Z,35.09
2023-03-30T09:38:53.299Z,34.77
2023-03-30T09:42:05.164Z,34.86
2023-03-30T09:44:40.865Z,35.16
2023-03-30T09:47:27.067Z,35.38
2023-03-30T09:50:02.989Z,34.98
2023-03-30T09:52:37.667Z,35.35
2023-03-30T09:55:31.656Z,35.18
2023-03-30T09:58:21.655Z,35.50
2023-03-30T10:01:09.380Z,35.60
2023-03-30T10:03:40.086Z,35.31
2023-03-30T10:06:14.236Z,35.42
2023-03-30T10:08:53.701Z,35.75
2023-03-30T10:11:39.572Z,35.81
2023-03-30T10:14:34.295Z,35.57
2023-03-30T10:17:10.334Z,35.80
2023-03-30T10:19:48.647Z,35.69
2023-03-30T10:22:24.622Z,35.91
2023-03-30T10:24:57.763Z,35.43
2023-03-30T10:27:36.596Z,35.53
2023-03-30T10:30:14.705Z,35.68
2023-03-30T10:32:48.286Z,35.86
2023-03-30T10:35:27.059Z,35.76
2023-03-30T10:38:00.042Z,35.90
2023-03-30T10:40:39.052Z,35.51
2023-03-30T10:43:19.954Z,35.77
2023-03-30T10:45:54.580Z,35.56
2023-03-30T10:48:44.909Z,36.08
2023-03-30T10:51:32.764Z,35.65
2023-03-30T10:54:19.917Z,35.71
2023-03-30T10:56:54.674Z,36.08
2023-03-30T11:00:00.215Z,35.94
2023-03-30T11:02:59.308Z,35.95
2023-03-30T11:05:35.995Z,36.14
2023-03-30T11:08:10.127Z,35.96
2023-03-30T11:10:45.481Z,35.75
2023-03-30T11:13:24.366Z,35.83
2023-03-30T11:15:59.200Z,35.95
2023-03-30T11:18:37.932Z,35.89
2023-03-30T11:21:14.642Z,35.99
2023-03-30T11:23:53.971Z,35.66
2023-03-30T11:26:36.622Z,35.85
2023-03-30T11:29:27.583Z,36.04
2023-03-30T11:32:17.885Z,35.60
2023-03-30T11:35:02.636Z,35.71
2023-03-30T11:37:41.445Z,35.60
2023-03-30T11:40:23.701Z,36.16
2023-03-30T11:42:55.893Z,35.99
2023-03-30T11:46:04.084Z,36.04
2023-03-30T11:49:34.218Z,36.35
2023-03-30T11:52:27.978Z,36.00
2023-03-30T11:55:29.802Z,36.27
2023-03-30T11:58:17.131Z,36.22
2023-03-30T12:01:04.433Z,36.03
2023-03-30T12:03:45.784Z,36.38
2023-03-30T12:06:35.368Z,36.16
2023-03-30T12:09:27.104Z,36.02
2023-03-30T12:12:08.275Z,36.15
2023-03-30T12:14:57.173Z,36.15
2023-03-30T12:17:42.435Z,36.14
2023-03-30T12:20:29.979Z,36.28
2023-03-30T12:23:12.078Z,36.27
2023-03-30T12:26:11.020Z,35.83
2023-03-30T12:29:15.143Z,35.79
2023-03-30T12:32:21.629Z,35.61
2023-03-30T12:34:52.386Z,35.74
2023-03-30T12:37:27.057Z,35.95
2023-03-30T12:40:11.666Z,35.90
2023-03-30T12:42:56.159Z,35.47
2023-03-30T12:45:33.882Z,35.71
2023-03-30T12:48:33.660Z,35.66
2023-03-30T12:51:24.877Z,35.66
2023-03-30T12:54:38.187Z,35.37
2023-03-30T12:57:23.790Z,35.59
2023-03-30T13:00:24.044Z,35.48
2023-03-30T13:03:30.931Z,35.63
2023-03-30T13:06:05.435Z,35.70
2023-03-30T13:08:52.934Z,35.55
2023-03-30T13:11:26.633Z,35.42
2023-03-30T13:14:03.410Z,35.69
2023-03-30T13:17:17.974Z,35.76
2023-03-30T13:20:25.956Z,35.60
2023-03-30T13:23:33.458Z,35.45
2023-03-30T13:26:33.849Z,35.25
2023-03-30T13:29:14.666Z,35.53
2023-03-30T13:32:18.931Z,35.13
2023-03-30T13:35:41.337Z,35.39
2023-03-30T13:38:40.566Z,35.52
2023-03-30T13:41:44.797Z,35.09
2023-03-30T13:44:42.038Z,35.59
2023-03-30T13:47:37.263Z,35.34
2023-03-30T13:50:22.540Z,35.26
2023-03-30T13:52:56.779Z,35.18
2023-03-30T13:55:33.712Z,35.33
2023-03-30T13:58:08.344Z,35.06
2023-03-30T14:00:49.389Z,35.21
2023-03-30T14:03:40.729Z,35.17
2023-03-30T14:06:19.581Z,35.47
2023-03-30T14:08:53.050Z,35.46
2023-03-30T14:11:28.443Z,35.07
2023-03-30T14:13:59.847Z,35.11
2023-03-30T14:16:39.989Z,35.12
2023-03-30T14:19:25.357Z,35.34
2023-03-30T14:22:02.000Z,34.87
2023-03-30T14:24:35.144Z,35.34
2023-03-30T14:27:09.982Z,35.34
2023-03-30T14:29:48.836Z,35.11
2023-03-30T14:32:23.842Z,35.15
2023-03-30T14:34:58.470Z,35.23
2023-03-30T14:37:33.404Z,34.88
2023-03-30T14:40:06.960Z,35.01
2023-03-30T14:42:39.913Z,35.15
2023-03-30T14:45:12.911Z,34.95
2023-03-30T14:47:44.246Z,35.00
2023-03-30T14:50:21.971Z,35.05
2023-03-30T14:52:54.732Z,34.55
2023-03-30T14:55:30.223Z,35.12
2023-03-30T14:58:02.469Z,34.59
2023-03-30T15:00:36.208Z,34.54
2023-03-30T15:03:16.805Z,34.58
2023-03-30T15:05:55.024Z,34.55
2023-03-30T15:08:29.425Z,34.68
2023-03-30T15:11:03.448Z,34.53
2023-03-30T15:13:42.704Z,34.54
2023-03-30T15:16:21.501Z,34.43
2023-03-30T15:18:55.114Z,34.23
2023-03-30T15:21:27.671Z,34.11
2023-03-30T15:23:59.615Z,34.16
2023-03-30T15:26:31.420Z,34.13
2023-03-30T15:29:05.045Z,33.82
2023-03-30T15:31:35.582Z,33.53
2023-03-30T15:34:08.971Z,33.67
2023-03-30T15:36:42.789Z,33.79
2023-03-30T15:39:24.764Z,33.73
2023-03-30T15:42:05.856Z,33.83
2023-03-30T15:44:38.645Z,33.32
2023-03-30T15:47:17.852Z,33.74
2023-03-30T15:49:53.252Z,33.76
2023-03-30T15:52:34.518Z,33.51
2023-03-30T15:55:16.684Z,33.37
2023-03-30T15:57:53.466Z,33.10
2023-03-30T16:00:29.272Z,33.24
2023-03-30T16:03:03.024Z,33.12
2023-03-30T16:05:36.449Z,33.18
2023-03-30T16:08:08.811Z,33.14
2023-03-30T16:10:41.141Z,33.33
2023-03-30T16:13:15.144Z,32.80
2023-03-30T16:15:45.680Z,32.94
2023-03-30T16:18:17.098Z,33.44
2023-03-30T16:20:47.699Z,32.96
2023-03-30T16:23:20.489Z,33.16
2023-03-30T16:25:51.780Z,33.04
2023-03-30T16:28:25.197Z,33.19
2023-03-30T16:31:03.119Z,33.11
2023-03-30T16:33:34.267Z,32.68
2023-03-30T16:36:09.124Z,33.12
2023-03-30T16:38:43.910Z,33.25
2023-03-30T16:41:19.271Z,32.77
2023-03-30T16:43:50.381Z,32.69
2023-03-30T16:46:23.045Z,33.27
2023-03-30T16:48:53.135Z,32.84
2023-03-30T16:51:25.614Z,33.10
2023-03-30T16:53:58.201Z,33.08
2023-03-30T16:56:29.410Z,32.79
2023-03-30T16:59:00.418Z,32.70
2023-03-30T17:01:32.678Z,32.44
2023-03-30T17:04:03.777Z,33.04
2023-03-30T17:06:33.679Z,32.77
2023-03-30T17:09:09.608Z,32.51
2023-03-30T17:11:40.446Z,32.32
2023-03-30T17:14:10.916Z,32.59
2023-03-30T17:16:47.514Z,32.87
2023-03-30T17:19:19.944Z,32.30
2023-03-30T17:21:50.650Z,32.38
2023-03-30T17:24:23.165Z,32.42
2023-03-30T17:26:53.736Z,32.45
2023-03-30T17:29:24.084Z,32.46
2023-03-30T17:31:54.747Z,32.80
2023-03-30T17:34:25.521Z,32.38
2023-03-30T17:36:56.664Z,32.61
2023-03-30T17:39:29.858Z,32.69
2023-03-30T17:42:00.920Z,32.35
2023-03-30T17:44:33.697Z,32.17
2023-03-30T17:47:04.411Z,32.10
2023-03-30T17:49:37.010Z,32.00
2023-03-30T17:52:07.720Z,32.54
2023-03-30T17:54:41.809Z,32.30
2023-03-30T17:57:13.867Z,32.31
2023-03-30T17:59:44.533Z,31.84
2023-03-30T18:02:15.108Z,31.96
2023-03-30T18:04:45.962Z,32.32
2023-03-30T18:07:17.614Z,31.99
2023-03-30T18:09:50.373Z,32.26
2023-03-30T18:12:20.200Z,31.96
2023-03-30T18:14:50.690Z,32.20
2023-03-30T18:17:21.505Z,31.95
2023-03-30T18:19:52.694Z,31.96
2023-03-30T18:22:23.118Z,31.91
2023-03-30T18:24:56.036Z,32.35
2023-03-30T18:27:27.283Z,32.23
2023-03-30T18:29:58.526Z,31.94
2023-03-30T18:32:40.498Z,32.14
2023-03-30T18:35:17.286Z,31.99
2023-03-30T18:37:48.625Z,32.32
2023-03-30T18:40:25.915Z,32.19
2023-03-30T18:42:56.852Z,32.01
2023-03-30T18:45:41.249Z,32.18
2023-03-30T18:48:17.222Z,31.79
2023-03-30T18:50:49.741Z,32.07
2023-03-30T18:53:22.630Z,31.80
2023-03-30T18:55:59.001Z,32.07
2023-03-30T18:58:30.972Z,31.75
2023-03-30T19:01:02.053Z,31.71
2023-03-30T19:03:33.687Z,32.07
2023-03-30T19:06:04.314Z,31.69
2023-03-30T19:08:35.374Z,32.04
2023-03-30T19:11:08.174Z,32.18
2023-03-30T19:13:38.425Z,31.99
2023-03-30T19:16:09.515Z,32.02
2023-03-30T19:18:40.431Z,31.76
2023-03-30T19:21:16.663Z,31.59
2023-03-30T19:23:47.294Z,32.22
2023-03-30T19:26:19.902Z,31.55
2023-03-30T19:28:50.340Z,31.68
2023-03-30T19:31:20.249Z,31.78
2023-03-30T19:33:50.786Z,32.18
2023-03-30T19:36:25.218Z,31.72
2023-03-30T19:38:55.415Z,32.13
2023-03-30T19:41:38.716Z,32.06
2023-03-30T19:44:13.304Z,31.96
2023-03-30T19:46:48.343Z,31.72
2023-03-30T19:49:19.870Z,31.86
2023-03-30T19:51:54.503Z,31.78
2023-03-30T19:54:25.934Z,31.85
2023-03-30T19:56:58.790Z,31.89
2023-03-30T19:59:29.715Z,31.95
2023-03-30T20:02:00.427Z,31.96
2023-03-30T20:04:30.585Z,31.80
2023-03-30T20:07:01.958Z,31.67
2023-03-30T20:09:32.060Z,31.40
2023-03-30T20:12:05.023Z,31.86
2023-03-30T20:14:36.089Z,31.48
2023-03-30T20:17:10.997Z,31.41
2023-03-30T20:19:43.056Z,31.58
2023-03-30T20:22:13.684Z,32.11
2023-03-30T20:24:45.199Z,31.52
2023-03-30T20:27:18.444Z,31.52
2023-03-30T20:29:48.612Z,31.69
2023-03-30T20:32:21.983Z,31.81
2023-03-30T20:34:52.109Z,31.89
2023-03-30T20:37:22.436Z,31.29
2023-03-30T20:39:52.587Z,31.91
2023-03-30T20:42:27.194Z,31.48
2023-03-30T20:44:58.284Z,31.70
2023-03-30T20:47:31.057Z,31.62
2023-03-30T20:50:02.254Z,31.83
2023-03-30T20:52:32.474Z,31.31
2023-03-30T20:55:02.738Z,31.67
2023-03-30T20:57:40.198Z,31.53
2023-03-30T21:00:13.163Z,31.82
2023-03-30T21:02:43.670Z,31.70
2023-03-30T21:05:14.031Z,31.35
2023-03-30T21:07:48.265Z,31.66
2023-03-30T21:10:21.606Z,31.38
2023-03-30T21:12:56.619Z,31.34
2023-03-30T21:15:27.581Z,31.64
2023-03-30T21:17:57.751Z,31.28
2023-03-30T21:20:28.178Z,31.99
2023-03-30T21:22:58.878Z,31.43
2023-03-30T21:25:30.532Z,31.46
2023-03-30T21:28:03.278Z,31.87
2023-03-30T21:30:33.870Z,31.26
2023-03-30T21:33:03.980Z,31.85
2023-03-30T21:35:34.727Z,31.71
2023-03-30T21:38:06.375Z,31.43
2023-03-30T21:40:36.986Z,31.74
2023-03-30T21:43:09.793Z,31.46
2023-03-30T21:45:41.066Z,31.26
2023-03-30T21:48:15.075Z,31.70
2023-03-30T21:50:45.686Z,31.51
2023-03-30T21:53:16.962Z,31.55
2023-03-30T21:55:48.944Z,31.77
2023-03-30T21:58:21.574Z,31.45
2023-03-30T22:01:04.502Z,31.64
2023-03-30T22:03:42.160Z,31.14
2023-03-30T22:06:16.453Z,31.73
2023-03-30T22:08:48.223Z,31.69
2023-03-30T22:11:22.598Z,31.26
2023-03-30T22:13:55.801Z,31.56
2023-03-30T22:16:28.683Z,31.54
2023-03-30T22:18:59.746Z,30.74
2023-03-30T22:21:34.767Z,30.99
2023-03-30T22:24:08.033Z,31.06
2023-03-30T22:26:38.458Z,31.02
2023-03-30T22:29:10.878Z,31.00
2023-03-30T22:31:43.065Z,31.24
2023-03-30T22:34:13.994Z,30.77
2023-03-30T22:36:44.878Z,30.77
2023-03-30T22:39:17.176Z,31.18
2023-03-30T22:41:47.567Z,30.97
2023-03-30T22:44:20.361Z,30.84
2023-03-30T22:46:50.866Z,31.41
2023-03-30T22:49:21.558Z,30.99
2023-03-30T22:51:54.504Z,31.26
2023-03-30T22:54:26.200Z,31.24
2023-03-30T22:56:57.120Z,30.96
2023-03-30T22:59:30.329Z,31.39
2023-03-30T23:02:00.572Z,31.42
2023-03-30T23:04:32.006Z,30.98
2023-03-30T23:07:04.503Z,31.39
2023-03-30T23:09:35.305Z,30.96
2023-03-30T23:12:06.854Z,31.07
2023-03-30T23:14:40.247Z,30.86
2023-03-30T23:17:10.564Z,31.41
2023-03-30T23:19:48.910Z,30.95
2023-03-30T23:22:19.608Z,30.75
2023-03-30T23:24:49.702Z,31.16
2023-03-30T23:27:20.461Z,31.10
2023-03-30T23:29:53.473Z,30.88
2023-03-30T23:32:23.573Z,31.36
2023-03-30T23:34:53.360Z,30.95
2023-03-30T23:37:23.851Z,31.24
2023-03-30T23:39:54.301Z,31.41
2023-03-30T23:42:24.676Z,31.31
2023-03-30T23:44:57.149Z,31.25
2023-03-30T23:47:27.865Z,30.84
2023-03-30T23:49:58.366Z,31.01
2023-03-30T23:52:28.570Z,31.23
2023-03-30T23:55:02.205Z,31.21
2023-03-30T23:57:32.854Z,30.99
